Time;durP1;ratioP1;P1;durP2;ratioP2;P2;SDS_P1;SDS_P2;PMS_P1;PMS_P2;Temp;Humidity;BMP_temperature;BMP_pressure;BME280_temperature;BME280_humidity;BME280_pressure;Samples;Min_cycle;Max_cycle;Signal;HPM_P1;HPM_P2
2021/07/05 00:00:21;;;;;;;7.35;6.05;;;;;;;21.50;96.92;98209.08;1835127;77;22160;-58
2021/07/05 00:02:54;;;;;;;12.95;6.90;;;;;;;21.46;96.92;98210.97;1871017;76;20458;-58
2021/07/05 00:05:29;;;;;;;9.60;7.25;;;;;;;21.40;97.19;98219.14;1889988;76;22546;-62
2021/07/05 00:08:23;;;;;;;13.38;6.92;;;;;;;21.35;97.46;98221.09;1870556;76;22120;-57
2021/07/05 00:10:58;;;;;;;11.40;7.30;;;;;;;21.31;97.62;98219.97;1870705;76;22105;-59
2021/07/05 00:13:52;;;;;;;9.58;6.80;;;;;;;21.26;97.69;98228.05;1889962;76;22112;-59
2021/07/05 00:16:27;;;;;;;10.60;7.00;;;;;;;21.23;97.88;98223.78;1870761;76;22124;-60
2021/07/05 00:19:02;;;;;;;10.43;6.65;;;;;;;21.20;97.89;98220.45;1870719;76;22113;-60
2021/07/05 00:21:37;;;;;;;9.55;6.90;;;;;;;21.18;97.82;98233.63;1870710;76;22552;-58
2021/07/05 00:24:12;;;;;;;10.55;7.08;;;;;;;21.16;97.88;98230.22;1850851;77;22591;-59
2021/07/05 00:26:48;;;;;;;11.38;6.87;;;;;;;21.15;97.90;98232.92;1889948;76;22173;-61
2021/07/05 00:29:23;;;;;;;9.05;6.67;;;;;;;21.14;97.81;98225.52;1889972;76;22148;-58
2021/07/05 00:31:58;;;;;;;10.08;7.60;;;;;;;21.11;97.91;98226.09;1890013;76;22158;-59
2021/07/05 00:34:32;;;;;;;12.65;7.08;;;;;;;21.09;97.96;98224.87;1889990;76;22108;-57
2021/07/05 00:37:07;;;;;;;9.33;7.37;;;;;;;21.06;97.98;98217.11;1890001;76;22165;-58
2021/07/05 00:39:41;;;;;;;12.47;7.35;;;;;;;21.06;97.99;98217.58;1870710;76;22160;-55
2021/07/05 00:42:16;;;;;;;12.50;6.87;;;;;;;21.05;98.07;98218.50;1890127;76;22119;-58
2021/07/05 00:44:51;;;;;;;10.98;6.97;;;;;;;21.01;97.87;98223.89;1870806;76;22149;-58
2021/07/05 00:47:27;;;;;;;11.57;7.62;;;;;;;21.02;97.89;98216.40;1873874;76;28336;-61
2021/07/05 00:50:06;;;;;;;8.60;6.00;;;;;;;21.06;97.86;98216.27;1870646;76;22137;-62
2021/07/05 00:52:44;;;;;;;9.88;6.92;;;;;;;21.06;97.75;98211.02;1870631;76;22561;-61
2021/07/05 00:55:37;;;;;;;10.13;6.33;;;;;;;21.05;97.70;98209.33;1854773;76;27915;-61
2021/07/05 00:58:32;;;;;;;8.88;6.17;;;;;;;21.07;97.51;98198.31;1870580;76;22144;-63
2021/07/05 01:01:07;;;;;;;11.43;6.62;;;;;;;21.05;97.25;98201.45;1870705;76;22116;-60
2021/07/05 01:03:41;;;;;;;8.63;6.50;;;;;;;21.04;97.50;98204.55;1889978;76;22607;-59
2021/07/05 01:06:16;;;;;;;11.60;6.42;;;;;;;21.00;97.58;98202.49;1889989;76;22554;-57
2021/07/05 01:09:11;;;;;;;9.58;6.22;;;;;;;20.97;97.70;98203.95;1870698;76;22535;-58
2021/07/05 01:11:46;;;;;;;10.68;7.72;;;;;;;20.95;97.78;98201.84;1870709;76;22532;-57
2021/07/05 01:14:21;;;;;;;10.23;7.10;;;;;;;20.94;97.94;98204.08;1870683;76;22149;-60
2021/07/05 01:16:56;;;;;;;11.10;7.45;;;;;;;20.92;98.07;98201.14;1870709;76;22144;-62
2021/07/05 01:19:31;;;;;;;10.72;7.28;;;;;;;20.88;98.34;98205.64;1870715;76;20094;-59
2021/07/05 01:22:06;;;;;;;10.78;6.25;;;;;;;20.83;98.56;98208.92;1870708;76;22145;-59
2021/07/05 01:24:43;;;;;;;11.15;7.22;;;;;;;20.79;98.64;98201.66;1870696;76;22140;-59
2021/07/05 01:27:37;;;;;;;14.38;7.37;;;;;;;20.77;98.78;98194.77;1873878;76;28530;-58
2021/07/05 01:30:17;;;;;;;13.55;6.90;;;;;;;20.79;98.81;98192.94;1854646;76;27937;-61
2021/07/05 01:32:56;;;;;;;10.70;6.35;;;;;;;20.85;98.73;98192.66;1870731;76;22149;-60
2021/07/05 01:35:32;;;;;;;14.05;6.97;;;;;;;20.82;98.41;98194.12;1870627;76;22128;-62
2021/07/05 01:38:27;;;;;;;10.45;6.55;;;;;;;20.79;98.68;98190.32;1870697;76;22137;-63
2021/07/05 01:41:03;;;;;;;8.48;6.83;;;;;;;20.73;98.73;98195.80;1889933;76;22620;-62
2021/07/05 01:43:38;;;;;;;11.75;7.80;;;;;;;20.70;98.92;98202.03;1854741;76;27992;-59
2021/07/05 01:46:32;;;;;;;8.85;6.67;;;;;;;20.71;99.13;98197.64;1861374;75;22184;-59
2021/07/05 01:49:08;;;;;;;11.15;6.92;;;;;;;20.67;99.24;98206.56;1889991;76;22559;-57
2021/07/05 01:51:43;;;;;;;11.63;7.05;;;;;;;20.64;99.41;98202.77;1889991;76;22120;-60
2021/07/05 01:54:18;;;;;;;9.58;7.35;;;;;;;20.60;99.56;98213.83;1870691;76;22141;-62
2021/07/05 01:56:52;;;;;;;13.10;7.03;;;;;;;20.56;99.63;98211.80;1889997;76;22168;-61
2021/07/05 01:59:27;;;;;;;12.18;7.55;;;;;;;20.55;99.78;98218.41;1870750;76;22148;-60
2021/07/05 02:02:05;;;;;;;10.05;7.42;;;;;;;20.53;99.83;98216.27;1870680;76;22141;-60
2021/07/05 02:04:57;;;;;;;11.60;6.80;;;;;;;20.51;100.00;98222.91;1854925;76;27933;-61
2021/07/05 02:07:32;;;;;;;10.35;6.60;;;;;;;20.57;99.99;98227.91;1889987;76;22143;-59
2021/07/05 02:10:12;;;;;;;13.88;7.67;;;;;;;20.55;99.93;98231.05;1835129;77;22136;-60
2021/07/05 02:12:49;;;;;;;10.32;6.62;;;;;;;20.52;99.99;98232.46;1870473;76;22112;-65
2021/07/05 02:15:25;;;;;;;11.03;6.87;;;;;;;20.50;100.00;98230.81;1850870;77;20214;-61
2021/07/05 02:18:19;;;;;;;10.23;6.95;;;;;;;20.50;100.00;98231.66;1889946;76;22120;-63
2021/07/05 02:20:59;;;;;;;9.65;7.50;;;;;;;20.50;100.00;98231.66;1870562;76;22158;-64
2021/07/05 02:23:34;;;;;;;8.33;6.10;;;;;;;20.51;100.00;98237.32;1870908;76;22141;-63
2021/07/05 02:26:09;;;;;;;8.90;6.55;;;;;;;20.55;99.99;98239.38;1889966;76;22140;-57
2021/07/05 02:28:44;;;;;;;12.18;7.53;;;;;;;20.58;99.88;98236.62;1854625;76;28328;-60
2021/07/05 02:31:19;;;;;;;10.50;7.03;;;;;;;20.65;99.74;98234.61;1870703;76;22133;-60
2021/07/05 02:33:53;;;;;;;12.23;7.12;;;;;;;20.69;99.59;98240.14;1889986;76;22250;-59
2021/07/05 02:36:28;;;;;;;11.65;7.97;;;;;;;20.70;99.42;98244.45;1890049;76;22119;-63
2021/07/05 02:39:05;;;;;;;11.43;7.42;;;;;;;20.73;99.38;98248.25;1870859;76;22100;-60
2021/07/05 02:41:39;;;;;;;10.18;7.70;;;;;;;20.72;99.33;98247.87;1873916;76;28066;-63
2021/07/05 02:44:14;;;;;;;14.55;8.03;;;;;;;20.78;99.20;98243.66;1854635;76;27934;-58
2021/07/05 02:46:49;;;;;;;9.70;6.87;;;;;;;20.85;99.04;98242.50;1870705;76;22105;-61
2021/07/05 02:49:43;;;;;;;11.05;7.28;;;;;;;20.86;98.87;98249.44;1870578;76;22121;-60
2021/07/05 02:52:18;;;;;;;11.45;7.83;;;;;;;20.84;98.86;98248.67;1870628;76;22164;-61
2021/07/05 02:54:52;;;;;;;11.05;8.43;;;;;;;20.82;98.82;98247.87;1870705;76;22169;-62
2021/07/05 02:57:30;;;;;;;13.53;7.92;;;;;;;20.80;98.81;98250.55;1870705;76;22202;-57
2021/07/05 03:00:19;;;;;;;15.20;7.92;;;;;;;20.78;98.89;98246.28;1870880;76;22149;-65
2021/07/05 03:02:55;;;;;;;13.60;7.72;;;;;;;20.78;98.89;98243.66;1889934;76;22143;-63
2021/07/05 03:05:50;;;;;;;13.85;8.63;;;;;;;20.79;98.89;98248.02;1870636;76;22120;-62
2021/07/05 03:08:26;;;;;;;16.55;8.43;;;;;;;20.82;98.92;98247.87;1870506;76;22141;-63
2021/07/05 03:11:01;;;;;;;15.78;8.33;;;;;;;20.84;98.80;98249.11;1870693;76;22116;-58
2021/07/05 03:13:36;;;;;;;10.98;7.47;;;;;;;20.85;98.75;98250.36;1890015;76;22554;-59
2021/07/05 03:16:11;;;;;;;11.22;8.03;;;;;;;20.86;98.49;98252.52;1870710;76;22567;-61
2021/07/05 03:18:46;;;;;;;12.68;7.70;;;;;;;20.84;98.52;98247.36;1870710;76;22551;-62
2021/07/05 03:21:21;;;;;;;14.38;7.92;;;;;;;20.84;98.38;98251.30;1889984;76;22141;-63
2021/07/05 03:24:14;;;;;;;13.58;8.38;;;;;;;20.83;98.46;98249.56;1890079;76;22143;-61
2021/07/05 03:26:50;;;;;;;10.18;8.83;;;;;;;20.84;98.33;98251.30;1890096;76;22106;-60
2021/07/05 03:29:24;;;;;;;12.88;10.15;;;;;;;20.86;98.15;98249.44;1889938;76;22140;-60
2021/07/05 03:32:01;;;;;;;12.75;10.32;;;;;;;20.88;98.31;98254.16;1870694;76;22112;-63
2021/07/05 03:34:37;;;;;;;13.62;10.93;;;;;;;20.91;98.24;98246.16;1889979;76;22189;-61
2021/07/05 03:37:32;;;;;;;14.10;11.25;;;;;;;20.89;98.36;98258.51;1870520;76;22177;-56
2021/07/05 03:40:32;;;;;;;13.85;10.15;;;;;;;20.89;98.49;98254.58;1889906;76;22574;-56
2021/07/05 03:43:07;;;;;;;11.85;10.38;;;;;;;20.92;98.46;98249.19;1889997;76;22136;-60
2021/07/05 03:45:43;;;;;;;13.70;8.78;;;;;;;20.98;98.36;98246.77;1889924;76;22195;-62
2021/07/05 03:48:18;;;;;;;14.45;9.73;;;;;;;21.05;98.19;98239.02;1870686;76;22166;-57
2021/07/05 03:51:18;;;;;;;14.03;9.78;;;;;;;21.14;98.01;98234.70;1850787;77;22196;-56
2021/07/05 03:54:31;;;;;;;13.05;9.98;;;;;;;21.25;97.42;98244.72;1862557;75;22652;-57
2021/07/05 03:57:22;;;;;;;12.30;8.48;;;;;;;21.33;97.28;98249.17;1889944;76;22139;-61
2021/07/05 04:00:09;;;;;;;12.25;9.03;;;;;;;21.43;96.75;98246.56;1889937;76;22245;-58
2021/07/05 04:02:46;;;;;;;12.53;8.80;;;;;;;21.51;96.49;98238.81;1889937;76;22132;-62
2021/07/05 04:05:39;;;;;;;11.45;8.93;;;;;;;21.58;96.01;98234.98;1870734;76;22113;-65
2021/07/05 04:08:35;;;;;;;14.85;9.45;;;;;;;21.64;95.17;98241.26;1870618;76;22532;-63
2021/07/05 04:11:09;;;;;;;11.68;9.25;;;;;;;21.66;94.90;98239.42;1870621;76;22176;-63
2021/07/05 04:13:45;;;;;;;15.03;8.90;;;;;;;21.70;94.76;98242.75;1854878;76;27889;-60
2021/07/05 04:16:19;;;;;;;11.40;8.05;;;;;;;21.80;94.61;98242.72;1870685;76;22154;-67
2021/07/05 04:18:54;;;;;;;13.68;9.05;;;;;;;21.88;93.98;98241.45;1889969;76;22140;-68
2021/07/05 04:21:29;;;;;;;10.85;9.75;;;;;;;21.97;93.83;98240.63;1889974;76;22123;-65
2021/07/05 04:24:05;;;;;;;13.95;9.33;;;;;;;22.05;93.33;98239.80;1889961;76;22104;-60
2021/07/05 04:26:39;;;;;;;12.68;8.93;;;;;;;22.10;92.89;98239.12;1854858;76;28341;-66
2021/07/05 04:29:34;;;;;;;12.20;9.30;;;;;;;22.12;92.24;98233.33;1870712;76;22113;-69
2021/07/05 04:32:11;;;;;;;11.80;8.50;;;;;;;22.16;92.61;98234.90;1889989;76;22136;-65
2021/07/05 04:34:49;;;;;;;14.63;9.30;;;;;;;22.30;92.43;98232.47;1870437;76;22190;-64
2021/07/05 04:37:24;;;;;;;10.90;9.28;;;;;;;22.47;91.76;98237.39;1870823;76;22144;-64
2021/07/05 04:39:59;;;;;;;14.18;9.40;;;;;;;22.60;91.23;98245.05;1870714;76;22160;-60
2021/07/05 04:42:34;;;;;;;15.00;9.20;;;;;;;22.71;90.69;98236.16;1870621;76;22128;-64
2021/07/05 04:45:12;;;;;;;11.80;9.53;;;;;;;22.84;90.38;98243.44;1854648;76;27903;-61
2021/07/05 04:47:49;;;;;;;12.50;8.68;;;;;;;23.05;89.78;98250.73;1890018;76;22100;-62
2021/07/05 04:50:24;;;;;;;11.97;9.75;;;;;;;23.18;88.47;98253.98;1889970;76;22157;-67
2021/07/05 04:53:00;;;;;;;11.57;9.10;;;;;;;23.24;87.16;98254.13;1853912;76;22566;-61
2021/07/05 04:55:54;;;;;;;11.95;8.48;;;;;;;23.13;86.57;98257.31;1852149;76;22595;-63
2021/07/05 04:58:37;;;;;;;14.18;9.00;;;;;;;23.06;86.20;98257.71;1852325;76;22212;-63
2021/07/05 05:01:13;;;;;;;16.35;10.18;;;;;;;23.01;86.43;98251.36;1863053;76;22576;-65
2021/07/05 05:03:48;;;;;;;12.03;9.53;;;;;;;23.00;86.48;98254.94;1854697;76;22203;-64
2021/07/05 05:06:44;;;;;;;17.30;9.53;;;;;;;23.02;86.21;98249.11;1855966;76;22216;-64
2021/07/05 05:09:21;;;;;;;16.00;9.03;;;;;;;23.09;86.43;98257.55;1870723;76;20348;-63
2021/07/05 05:11:55;;;;;;;13.60;10.03;;;;;;;23.24;86.30;98257.23;1868647;76;22166;-63
2021/07/05 05:14:49;;;;;;;14.13;10.18;;;;;;;23.35;85.44;98255.72;1842187;76;22210;-62
2021/07/05 05:17:30;;;;;;;10.95;9.23;;;;;;;23.35;85.00;98256.19;1850946;76;22643;-64
2021/07/05 05:20:08;;;;;;;10.63;8.38;;;;;;;23.32;84.78;98257.67;1858026;76;22553;-60
2021/07/05 05:23:02;;;;;;;14.87;9.25;;;;;;;23.35;84.64;98254.87;1852548;76;22615;-62
2021/07/05 05:25:37;;;;;;;14.40;9.98;;;;;;;23.34;84.21;98251.87;1842158;76;22577;-61
2021/07/05 05:28:12;;;;;;;17.87;9.40;;;;;;;23.37;84.62;98251.70;1855889;76;22136;-61
2021/07/05 05:31:06;;;;;;;19.23;9.40;;;;;;;23.52;84.68;98253.52;1853373;76;22200;-62
2021/07/05 05:33:41;;;;;;;13.25;9.83;;;;;;;23.74;84.50;98251.95;1854409;76;22135;-61
2021/07/05 05:36:16;;;;;;;12.33;10.00;;;;;;;23.95;83.80;98251.23;1853904;76;22244;-63
2021/07/05 05:38:51;;;;;;;12.73;9.98;;;;;;;24.15;83.02;98254.56;1836507;76;28352;-63
2021/07/05 05:41:33;;;;;;;13.15;10.10;;;;;;;24.37;81.96;98255.03;1857265;76;22210;-63
2021/07/05 05:44:08;;;;;;;14.25;10.65;;;;;;;24.47;81.08;98252.31;1849353;76;38828;-59
2021/07/05 05:46:44;;;;;;;15.08;10.40;;;;;;;24.65;80.23;98261.41;1839118;76;28088;-62
2021/07/05 05:49:19;;;;;;;10.55;8.88;;;;;;;24.82;79.50;98259.97;1865489;76;22167;-60
2021/07/05 05:51:53;;;;;;;12.98;8.75;;;;;;;25.00;79.07;98263.78;1854877;76;22194;-58
2021/07/05 05:54:29;;;;;;;13.80;9.68;;;;;;;25.17;78.19;98266.79;1851677;76;22599;-62
2021/07/05 05:57:04;;;;;;;19.98;8.55;;;;;;;25.39;77.04;98266.33;1854792;76;22209;-60
2021/07/05 05:59:40;;;;;;;18.50;9.35;;;;;;;26.05;75.18;98264.43;1846936;76;22280;-60
2021/07/05 06:02:35;;;;;;;12.70;9.40;;;;;;;27.13;71.02;98266.70;1849736;76;22180;-59
2021/07/05 06:05:10;;;;;;;15.13;9.40;;;;;;;28.09;67.68;98268.44;1853709;76;22155;-63
2021/07/05 06:07:52;;;;;;;17.62;8.25;;;;;;;28.65;65.43;98270.10;1845425;76;22602;-63
2021/07/05 06:10:27;;;;;;;12.00;8.23;;;;;;;29.60;61.78;98282.80;1864209;76;22163;-63
2021/07/05 06:13:03;;;;;;;12.33;8.43;;;;;;;30.45;59.36;98287.61;1852256;76;22211;-64
2021/07/05 06:15:39;;;;;;;14.93;8.78;;;;;;;31.19;56.61;98286.84;1837599;76;28006;-59
2021/07/05 06:18:13;;;;;;;9.70;8.10;;;;;;;31.81;54.91;98285.13;1853711;76;22230;-62
2021/07/05 06:21:08;;;;;;;11.60;6.92;;;;;;;32.30;52.54;98287.48;1856347;76;22278;-64
2021/07/05 06:23:49;;;;;;;9.23;7.65;;;;;;;32.85;51.79;98287.02;1869764;76;22081;-62
2021/07/05 06:26:29;;;;;;;15.03;7.95;;;;;;;33.39;49.88;98280.22;1889955;76;22526;-64
2021/07/05 06:29:04;;;;;;;10.32;7.10;;;;;;;33.58;48.33;98281.17;1835104;77;22102;-60
2021/07/05 06:31:58;;;;;;;11.12;7.50;;;;;;;33.46;48.08;98288.02;1870677;76;22152;-65
2021/07/05 06:34:32;;;;;;;8.03;7.10;;;;;;;33.58;48.40;98291.38;1889951;76;22216;-62
2021/07/05 06:37:08;;;;;;;8.03;6.80;;;;;;;33.75;47.60;98296.48;1870619;76;22212;-63
2021/07/05 06:39:43;;;;;;;13.48;7.10;;;;;;;34.09;46.72;98307.50;1889925;76;22054;-60
2021/07/05 06:42:37;;;;;;;7.17;5.90;;;;;;;34.60;45.93;98310.59;1870717;76;22225;-64
2021/07/05 06:45:12;;;;;;;10.53;6.33;;;;;;;35.09;45.09;98309.76;1889392;76;22069;-61
2021/07/05 06:48:08;;;;;;;10.95;6.80;;;;;;;36.05;42.99;98305.70;1870504;76;22083;-64
2021/07/05 06:50:43;;;;;;;9.65;6.03;;;;;;;36.26;41.85;98307.15;1870560;76;22054;-64
2021/07/05 06:53:18;;;;;;;10.35;6.28;;;;;;;36.23;42.07;98315.03;1870620;76;22144;-61
2021/07/05 06:55:53;;;;;;;7.80;6.03;;;;;;;36.44;41.88;98313.24;1889908;76;22139;-64
2021/07/05 06:58:27;;;;;;;10.25;6.37;;;;;;;36.87;40.92;98307.30;1870633;76;22054;-65
2021/07/05 07:01:21;;;;;;;9.30;6.10;;;;;;;37.18;39.91;98316.59;1889904;76;22634;-64
2021/07/05 07:03:56;;;;;;;8.85;4.95;;;;;;;37.07;39.34;98317.75;1870686;76;22161;-62
2021/07/05 07:06:31;;;;;;;9.03;6.08;;;;;;;36.80;39.43;98302.25;1889975;76;22495;-63
2021/07/05 07:09:05;;;;;;;14.05;5.67;;;;;;;36.26;40.68;98303.11;1870648;76;22074;-64
2021/07/05 07:11:40;;;;;;;8.83;5.20;;;;;;;35.91;41.39;98300.92;1870667;76;22058;-59
2021/07/05 07:14:22;;;;;;;10.35;6.10;;;;;;;36.01;41.74;98308.35;1890089;76;22105;-63
2021/07/05 07:17:04;;;;;;;9.58;5.50;;;;;;;36.50;40.35;98309.88;1870651;76;22561;-61
2021/07/05 07:19:33;;;;;;;6.95;5.12;;;;;;;36.55;40.00;98313.94;1890051;76;22066;-65
2021/07/05 07:22:27;;;;;;;9.80;5.65;;;;;;;36.55;39.74;98307.22;1870570;76;22063;-63
2021/07/05 07:25:05;;;;;;;8.50;5.60;;;;;;;36.59;39.89;98305.89;1870641;76;22643;-62
2021/07/05 07:27:38;;;;;;;6.85;4.83;;;;;;;36.72;39.96;98313.00;1870848;76;22062;-61
2021/07/05 07:30:16;;;;;;;8.48;5.05;;;;;;;36.66;39.84;98308.27;1889913;76;22484;-62
2021/07/05 07:33:10;;;;;;;8.13;5.45;;;;;;;36.33;40.42;98304.12;1890020;76;22215;-64
2021/07/05 07:35:46;;;;;;;9.50;5.90;;;;;;;35.99;41.27;98310.35;1868462;76;22047;-60
2021/07/05 07:38:43;;;;;;;10.65;5.25;;;;;;;35.63;42.04;98306.47;1850984;76;22131;-63
2021/07/05 07:41:35;;;;;;;8.28;5.95;;;;;;;35.73;42.35;98305.03;1854776;76;22120;-64
2021/07/05 07:44:10;;;;;;;6.78;5.00;;;;;;;35.43;42.64;98304.97;1860483;76;22543;-58
2021/07/05 07:47:05;;;;;;;8.35;5.35;;;;;;;34.89;43.14;98305.03;1876968;76;22667;-63
2021/07/05 07:49:39;;;;;;;7.67;5.28;;;;;;;34.29;44.10;98312.23;1837310;76;28025;-61
2021/07/05 07:52:14;;;;;;;7.55;4.20;;;;;;;33.93;44.91;98312.10;1851376;76;22481;-61
2021/07/05 07:54:49;;;;;;;8.78;5.15;;;;;;;33.46;45.40;98305.41;1834895;76;29968;-60
2021/07/05 07:57:24;;;;;;;9.95;5.33;;;;;;;33.12;45.91;98308.20;1864657;76;22104;-61
2021/07/05 08:00:18;;;;;;;6.28;4.70;;;;;;;32.39;47.58;98307.20;1855221;76;22244;-63
2021/07/05 08:02:53;;;;;;;8.25;5.35;;;;;;;31.93;48.88;98312.55;1860026;76;22107;-62
2021/07/05 08:05:28;;;;;;;10.35;5.50;;;;;;;31.62;50.20;98309.87;1854058;76;22092;-60
2021/07/05 08:08:04;;;;;;;13.55;5.85;;;;;;;31.82;49.77;98305.98;1854862;76;23098;-60
2021/07/05 08:10:38;;;;;;;9.93;6.17;;;;;;;32.02;49.67;98306.44;1839917;76;28331;-59
2021/07/05 08:13:33;;;;;;;9.65;5.87;;;;;;;32.74;47.89;98308.52;1866397;76;22074;-63
2021/07/05 08:16:08;;;;;;;11.15;5.35;;;;;;;32.76;48.16;98305.22;1865866;76;22123;-61
2021/07/05 08:18:42;;;;;;;8.28;5.05;;;;;;;32.68;46.82;98300.58;1853790;76;22534;-62
2021/07/05 08:21:17;;;;;;;7.55;5.03;;;;;;;32.57;47.93;98304.23;1855826;76;22457;-59
2021/07/05 08:24:12;;;;;;;8.18;5.45;;;;;;;33.05;47.48;98300.77;1851980;76;22090;-61
2021/07/05 08:26:46;;;;;;;9.78;5.62;;;;;;;32.78;47.25;98313.95;1852529;76;22109;-61
2021/07/05 08:29:21;;;;;;;10.23;5.35;;;;;;;32.43;48.65;98305.92;1855861;76;22066;-60
2021/07/05 08:31:56;;;;;;;10.32;4.95;;;;;;;32.31;48.93;98305.67;1852937;76;22081;-63
2021/07/05 08:34:30;;;;;;;7.33;5.58;;;;;;;32.85;48.25;98305.73;1853480;76;22072;-60
2021/07/05 08:37:05;;;;;;;7.95;5.35;;;;;;;32.76;47.73;98307.89;1852930;76;22481;-61
2021/07/05 08:39:40;;;;;;;9.73;5.10;;;;;;;32.84;47.90;98303.52;1840451;76;38697;-63
2021/07/05 08:42:37;;;;;;;6.92;4.72;;;;;;;32.74;48.19;98305.34;1862329;76;22079;-64
2021/07/05 08:45:39;;;;;;;7.42;4.95;;;;;;;31.99;48.43;98297.38;1852034;76;22097;-57
2021/07/05 08:48:39;;;;;;;6.17;5.15;;;;;;;31.89;48.93;98299.97;1862738;76;22215;-62
2021/07/05 08:51:18;;;;;;;9.33;5.05;;;;;;;31.44;50.27;98298.12;1851981;76;22658;-60
2021/07/05 08:53:55;;;;;;;6.53;4.45;;;;;;;31.38;49.96;98306.63;1855140;76;22270;-62
2021/07/05 08:56:30;;;;;;;6.28;4.50;;;;;;;30.96;49.56;98301.27;1853180;76;22101;-63
2021/07/05 08:59:32;;;;;;;8.50;4.58;;;;;;;31.06;48.81;98298.19;1851137;76;22110;-61
2021/07/05 09:02:10;;;;;;;7.92;4.12;;;;;;;30.96;49.02;98299.44;1858510;76;22099;-60
2021/07/05 09:04:52;;;;;;;5.60;3.95;;;;;;;30.79;50.22;98295.51;1862684;76;22157;-67
2021/07/05 09:08:05;;;;;;;8.20;4.65;;;;;;;30.70;49.53;98298.42;1854107;76;22286;-62
2021/07/05 09:10:53;;;;;;;7.03;4.00;;;;;;;30.41;49.65;98298.17;1863490;76;22277;-63
2021/07/05 09:13:51;;;;;;;7.28;4.62;;;;;;;30.39;49.34;98305.42;1851852;76;22260;-64
2021/07/05 09:16:47;;;;;;;11.78;4.22;;;;;;;30.08;50.00;98294.55;1852557;76;22116;-65
2021/07/05 09:19:41;;;;;;;9.08;4.95;;;;;;;29.71;51.78;98301.94;1855395;76;22164;-61
2021/07/05 09:22:35;;;;;;;12.25;4.45;;;;;;;29.75;51.52;98303.40;1866428;76;22064;-61
2021/07/05 09:25:10;;;;;;;8.80;4.75;;;;;;;29.99;51.80;98301.93;1852082;76;22087;-64
2021/07/05 09:27:45;;;;;;;5.70;3.72;;;;;;;30.32;50.99;98304.72;1880227;76;22094;-60
2021/07/05 09:30:21;;;;;;;9.75;4.70;;;;;;;30.41;50.19;98310.14;1870604;76;22466;-60
2021/07/05 09:33:20;;;;;;;6.35;3.90;;;;;;;30.41;50.65;98311.48;1889911;76;22050;-63
2021/07/05 09:36:04;;;;;;;11.40;4.47;;;;;;;30.25;50.04;98316.33;1869760;76;22224;-65
2021/07/05 09:38:44;;;;;;;7.25;4.35;;;;;;;29.79;51.50;98310.64;1861728;76;22098;-60
2021/07/05 09:41:29;;;;;;;9.80;4.20;;;;;;;29.51;52.36;98310.09;1870615;76;22506;-62
2021/07/05 09:44:11;;;;;;;11.15;4.40;;;;;;;29.39;53.12;98304.42;1870641;76;22248;-63
2021/07/05 09:46:58;;;;;;;6.72;3.90;;;;;;;29.40;53.69;98295.47;1870553;76;22144;-64
2021/07/05 09:49:33;;;;;;;8.55;4.50;;;;;;;29.24;53.18;98301.61;1889944;76;20257;-61
2021/07/05 09:52:26;;;;;;;9.60;4.10;;;;;;;29.06;54.36;98302.04;1870574;76;22055;-63
2021/07/05 09:55:21;;;;;;;9.23;4.58;;;;;;;29.07;54.55;98299.73;1867499;75;22176;-62
2021/07/05 09:57:57;;;;;;;8.13;4.70;;;;;;;28.86;55.07;98297.34;1851675;76;22155;-60
2021/07/05 10:00:38;;;;;;;8.90;4.40;;;;;;;28.63;55.87;98297.73;1837129;76;28025;-63
2021/07/05 10:03:39;;;;;;;5.85;4.20;;;;;;;28.62;56.50;98301.33;1857488;76;22302;-61
2021/07/05 10:06:20;;;;;;;8.58;4.50;;;;;;;28.58;54.82;98306.03;1855904;76;22661;-64
2021/07/05 10:08:55;;;;;;;10.95;4.42;;;;;;;28.50;54.71;98308.41;1865826;76;22223;-63
2021/07/05 10:11:30;;;;;;;8.50;4.37;;;;;;;28.54;55.34;98311.18;1847518;76;29891;-63
2021/07/05 10:14:13;;;;;;;9.10;4.15;;;;;;;28.52;55.32;98307.78;1870656;76;22153;-62
2021/07/05 10:16:50;;;;;;;10.95;4.70;;;;;;;28.39;55.51;98297.67;1870578;76;22259;-60
2021/07/05 10:19:25;;;;;;;8.03;4.42;;;;;;;28.42;56.15;98299.64;1870628;76;22177;-64
2021/07/05 10:22:00;;;;;;;8.45;4.12;;;;;;;28.52;55.15;98294.52;1870598;76;22153;-63
2021/07/05 10:24:37;;;;;;;8.28;4.10;;;;;;;28.54;54.58;98289.94;1870648;76;22544;-62
2021/07/05 10:27:52;;;;;;;6.30;3.95;;;;;;;28.63;55.02;98291.09;1848657;76;20129;-61
2021/07/05 10:30:28;;;;;;;5.92;4.05;;;;;;;28.69;54.07;98286.16;1855347;76;22179;-63
2021/07/05 10:33:22;;;;;;;5.35;4.12;;;;;;;28.71;54.51;98289.55;1870591;76;22125;-64
2021/07/05 10:35:57;;;;;;;9.28;4.25;;;;;;;28.76;54.67;98287.39;1871874;76;22170;-62
2021/07/05 10:38:41;;;;;;;6.05;4.40;;;;;;;28.84;54.77;98285.98;1839307;76;27912;-62
2021/07/05 10:41:18;;;;;;;8.13;4.33;;;;;;;28.96;54.97;98287.72;1851217;76;22100;-67
2021/07/05 10:43:58;;;;;;;9.53;4.00;;;;;;;29.01;54.70;98288.22;1846569;76;22186;-63
2021/07/05 10:46:53;;;;;;;7.45;4.47;;;;;;;28.91;53.36;98268.63;1855682;76;22144;-61
2021/07/05 10:49:34;;;;;;;5.83;3.80;;;;;;;28.84;53.84;98288.64;1854654;76;28321;-62
2021/07/05 10:52:12;;;;;;;10.38;4.55;;;;;;;28.96;52.94;98278.42;1889929;76;22281;-61
2021/07/05 10:55:07;;;;;;;7.65;3.30;;;;;;;29.04;52.75;98277.36;1870557;76;22157;-62
2021/07/05 10:57:48;;;;;;;8.55;3.95;;;;;;;29.04;52.26;98281.34;1823106;76;28399;-66
2021/07/05 11:00:43;;;;;;;5.47;3.42;;;;;;;29.25;52.05;98278.05;1890067;76;22216;-65
2021/07/05 11:03:42;;;;;;;7.37;3.52;;;;;;;29.41;51.70;98274.09;1870412;76;22197;-63
2021/07/05 11:06:29;;;;;;;10.23;4.08;;;;;;;29.54;51.52;98276.65;1867704;76;22172;-60
2021/07/05 11:09:07;;;;;;;6.92;3.80;;;;;;;29.58;51.69;98286.06;1851858;76;22219;-62
2021/07/05 11:11:50;;;;;;;9.55;4.00;;;;;;;29.47;51.87;98278.09;1850799;76;22270;-61
2021/07/05 11:14:34;;;;;;;6.45;3.75;;;;;;;29.42;50.80;98272.28;1860693;76;22672;-62
2021/07/05 11:17:22;;;;;;;5.55;3.65;;;;;;;29.34;50.73;98273.36;1855261;76;22570;-62
2021/07/05 11:19:58;;;;;;;6.05;3.83;;;;;;;29.33;51.28;98266.33;1852254;76;22744;-65
2021/07/05 11:22:36;;;;;;;8.88;4.17;;;;;;;29.40;51.37;98272.39;1853490;76;22198;-65
2021/07/05 11:25:22;;;;;;;9.83;3.50;;;;;;;29.40;50.41;98271.05;1854828;76;22170;-65
2021/07/05 11:28:03;;;;;;;5.45;4.00;;;;;;;29.37;50.50;98275.78;1853849;76;22191;-67
2021/07/05 11:30:48;;;;;;;7.03;4.08;;;;;;;29.42;49.80;98264.30;1851073;76;22214;-65
2021/07/05 11:33:26;;;;;;;8.48;4.10;;;;;;;29.55;49.84;98273.50;1856169;76;22569;-66
2021/07/05 11:36:02;;;;;;;5.67;3.83;;;;;;;29.59;50.27;98262.51;1870739;76;22145;-62
2021/07/05 11:38:42;;;;;;;7.53;3.60;;;;;;;29.63;50.30;98257.78;1854764;76;28360;-61
2021/07/05 11:41:24;;;;;;;6.92;3.92;;;;;;;29.60;50.37;98257.55;1856440;76;22351;-59
2021/07/05 11:44:10;;;;;;;6.80;3.75;;;;;;;29.37;51.16;98267.80;1870624;76;22223;-63
2021/07/05 11:46:46;;;;;;;7.00;4.25;;;;;;;29.50;51.07;98271.19;1870444;76;22600;-62
2021/07/05 11:49:24;;;;;;;6.25;3.30;;;;;;;29.48;49.99;98259.83;1870747;76;22580;-66
2021/07/05 11:51:59;;;;;;;7.22;3.50;;;;;;;29.49;48.80;98250.91;1889955;76;22531;-65
2021/07/05 11:54:36;;;;;;;7.90;3.65;;;;;;;29.54;49.37;98254.05;1870683;76;22566;-63
2021/07/05 11:57:12;;;;;;;5.53;3.65;;;;;;;29.69;49.65;98251.16;1889918;76;22564;-62
2021/07/05 12:00:08;;;;;;;8.90;4.10;;;;;;;29.94;49.63;98252.23;1870637;76;22121;-65
2021/07/05 12:02:44;;;;;;;7.50;3.67;;;;;;;29.97;49.57;98253.34;1870591;76;22128;-65
2021/07/05 12:05:19;;;;;;;6.50;4.00;;;;;;;29.95;49.93;98244.62;1874001;76;38392;-65
2021/07/05 12:08:06;;;;;;;10.32;3.70;;;;;;;29.87;49.84;98252.39;1870695;76;22136;-62
2021/07/05 12:10:47;;;;;;;8.73;3.80;;;;;;;29.82;50.17;98251.91;1870800;76;22299;-64
2021/07/05 12:13:42;;;;;;;7.58;3.77;;;;;;;29.81;50.42;98248.87;1889931;76;22147;-64
2021/07/05 12:16:47;;;;;;;7.12;3.87;;;;;;;29.92;50.53;98258.19;1890074;76;22567;-64
2021/07/05 12:19:24;;;;;;;8.23;3.67;;;;;;;29.61;52.03;98248.58;1889890;76;22582;-69
2021/07/05 12:22:08;;;;;;;7.65;3.62;;;;;;;29.04;53.66;98240.16;1870582;76;22086;-63
2021/07/05 12:24:51;;;;;;;8.38;4.30;;;;;;;28.69;54.97;98246.32;1870652;76;22539;-61
2021/07/05 12:27:30;;;;;;;6.70;3.83;;;;;;;28.69;54.81;98256.95;1870662;76;22156;-69
2021/07/05 12:30:24;;;;;;;9.15;3.42;;;;;;;28.78;54.03;98240.34;1870683;76;22140;-64
2021/07/05 12:33:07;;;;;;;7.55;3.98;;;;;;;28.75;53.92;98238.38;1870655;76;22149;-67